INFORMACIÓN METAR y TAF
METAR FOR GCGM
ADDS - METARS form results

(0908 UTC 22 May 2019)
Data provider http://aviationweather.gov/metar/data/
 
METAR text: GCGM 220900Z VRB04KT 9999 FEW020 20/13 Q1019 RMK R09/VRB06KT ARP/VRB04KT
Conditions at: GCGM (LA GOMERA ARPT , ES) observed 0900 UTC 22 May 2019
Temperature: 20.0°C (68°F)
Dewpoint: 13.0°C (55°F) [RH = 64%]
Pressure (altimeter): 30.09 inches Hg (1019.0 mb)
Winds: variable direction winds at 5 MPH (4 knots; 2.1 m/s)
Visibility: 6 or more miles (10+ km)
Ceiling: at least 12,000 feet AGL
Clouds: few clouds at 2000 feet AGL
Weather: no significant weather observed at this time

METAR text: GCGM 220830Z 21006KT 180V250 9999 FEW020 20/13 Q1018 RMK R09/23003KT 180V290 ARP/25005KT 190V280
Conditions at: GCGM (LA GOMERA ARPT , ES) observed 0830 UTC 22 May 2019
Temperature: 20.0°C (68°F)
Dewpoint: 13.0°C (55°F) [RH = 64%]
Pressure (altimeter): 30.06 inches Hg (1018.0 mb)
Winds: from the SSW (210 degrees) at 7 MPH (6 knots; 3.1 m/s)
Visibility: 6 or more miles (10+ km)
Ceiling: at least 12,000 feet AGL
Clouds: few clouds at 2000 feet AGL
Weather: no significant weather observed at this time

Forecast for: GCGM (LA GOMERA ARPT , ES)
Text: TAF GCGM 220800Z 2209/2309 23009KT 9999 FEW020 TX23/2213Z TN17/2306Z
Forecast period: 0900 UTC 22 May 2019 to 0900 UTC 23 May 2019
Forecast type: FROM: standard forecast or significant change
Winds: from the SW (230 degrees) at 10 MPH (9 knots; 4.6 m/s)
Visibility: 6 or more miles 10+ km)
Ceiling: at least 12,000 feet AGL
Clouds: few clouds at 2000 feet AGL
Weather: no significant weather forecast for this period

 MAPA DE AEROPUERTO

 INFORMACIÓN DE PISTA
Pista 09 Longitud 4921 ft Ancho 98 ft
Elevación 716 ft Umbral desplazado 0 ft Rumbo de pista 81
Pista 27 Longitud 4921 ft Ancho 98 ft
Elevación 712 ft Umbral desplazado 0 ft Rumbo de pista 261

 FRECUANCIAS DEL AEROPUERTO
Tipo GND Nombre GND Frecuencia 121.7 MHZ
Tipo TWR Nombre TWR Frecuencia 118.4 MHZ

 RADIO AYUDAS DEL AEROPUERTO
Tipo VOR-DME Nombre La Gomera Frecuencia 116000 KHZ



Powered by Virtual Airlines Manager [v2.6.2]